Time;durP1;ratioP1;P1;durP2;ratioP2;P2;SDS_P1;SDS_P2;PMS_P1;PMS_P2;Temp;Humidity;BMP_temperature;BMP_pressure;BME280_temperature;BME280_humidity;BME280_pressure;Samples;Min_cycle;Max_cycle;Signal;HPM_P1;HPM_P2
2021/05/03 00:01:52;;;;;;;5.65;4.05;;;;;;;;;;4917221;29;20103;-67
2021/05/03 00:04:19;;;;;;;5.28;4.25;;;;;;;;;;4917447;29;20056;-67
2021/05/03 00:06:45;;;;;;;4.40;4.00;;;;;;;;;;4917005;29;20052;-67
2021/05/03 00:09:11;;;;;;;4.72;3.97;;;;;;;;;;4917257;29;20052;-66
2021/05/03 00:11:37;;;;;;;4.97;4.15;;;;;;;;;;4917202;29;20048;-66
2021/05/03 00:14:04;;;;;;;4.95;4.40;;;;;;;;;;4917168;29;20220;-66
2021/05/03 00:16:30;;;;;;;6.32;4.43;;;;;;;;;;4916798;29;20111;-67
2021/05/03 00:18:56;;;;;;;6.10;4.10;;;;;;;;;;4917266;29;20052;-66
2021/05/03 00:21:22;;;;;;;4.88;4.38;;;;;;;;;;4916972;29;20430;-66
2021/05/03 00:23:48;;;;;;;5.55;4.45;;;;;;;;;;4917038;29;20396;-66
2021/05/03 00:26:15;;;;;;;7.00;4.70;;;;;;;;;;4916582;29;20052;-66
2021/05/03 00:28:42;;;;;;;5.22;4.38;;;;;;;;;;4916845;29;20099;-66
2021/05/03 00:31:09;;;;;;;6.28;4.97;;;;;;;;;;4916865;29;20123;-66
2021/05/03 00:33:36;;;;;;;5.15;4.57;;;;;;;;;;4916792;29;20126;-67
2021/05/03 00:36:03;;;;;;;6.10;4.68;;;;;;;;;;4916613;29;20052;-66
2021/05/03 00:38:30;;;;;;;7.93;5.38;;;;;;;;;;4916980;29;20051;-66
2021/05/03 00:40:58;;;;;;;6.45;5.05;;;;;;;;;;4916900;29;20080;-66
2021/05/03 00:43:24;;;;;;;6.07;5.47;;;;;;;;;;4916628;29;20044;-66
2021/05/03 00:45:50;;;;;;;6.30;5.10;;;;;;;;;;4916118;29;20079;-66
2021/05/03 00:48:17;;;;;;;6.60;5.50;;;;;;;;;;4916610;29;20086;-66
2021/05/03 00:50:43;;;;;;;7.15;5.88;;;;;;;;;;4916470;29;20495;-66
2021/05/03 00:53:09;;;;;;;6.40;5.40;;;;;;;;;;4916325;29;20091;-66
2021/05/03 00:55:36;;;;;;;6.60;5.53;;;;;;;;;;4916034;29;20550;-66
2021/05/03 00:58:03;;;;;;;5.30;4.80;;;;;;;;;;4916438;29;20131;-66
2021/05/03 01:00:30;;;;;;;5.32;4.82;;;;;;;;;;4899377;29;20108;-66
2021/05/03 01:02:57;;;;;;;7.15;5.25;;;;;;;;;;4915739;29;20060;-67
2021/05/03 01:05:27;;;;;;;7.80;5.72;;;;;;;;;;4914769;29;20095;-66
2021/05/03 01:07:53;;;;;;;7.43;5.40;;;;;;;;;;4916164;29;20090;-66
2021/05/03 01:10:20;;;;;;;6.85;5.68;;;;;;;;;;4916249;29;20064;-66
2021/05/03 01:12:46;;;;;;;7.72;5.57;;;;;;;;;;4915901;29;20048;-66
2021/05/03 01:15:12;;;;;;;7.30;5.80;;;;;;;;;;4914839;29;20486;-67
2021/05/03 01:17:42;;;;;;;6.80;6.07;;;;;;;;;;4915957;29;20547;-66
2021/05/03 01:20:10;;;;;;;9.15;6.03;;;;;;;;;;4916057;29;20566;-66
2021/05/03 01:22:36;;;;;;;6.43;5.40;;;;;;;;;;4915739;29;20048;-66
2021/05/03 01:25:03;;;;;;;8.15;6.60;;;;;;;;;;4915767;29;20079;-66
2021/05/03 01:27:29;;;;;;;8.43;6.15;;;;;;;;;;4930237;29;20119;-67
2021/05/03 01:29:55;;;;;;;8.88;5.95;;;;;;;;;;4915851;29;20080;-66
2021/05/03 01:32:21;;;;;;;8.32;6.97;;;;;;;;;;4915820;29;20048;-66
2021/05/03 01:34:48;;;;;;;8.57;5.65;;;;;;;;;;4915216;29;20063;-66
2021/05/03 01:37:14;;;;;;;8.05;6.80;;;;;;;;;;4915626;29;20048;-66
2021/05/03 01:39:40;;;;;;;8.82;6.60;;;;;;;;;;4915613;29;20576;-66
2021/05/03 01:42:06;;;;;;;7.10;5.82;;;;;;;;;;4915656;29;20079;-66
2021/05/03 01:44:33;;;;;;;7.97;6.00;;;;;;;;;;4915502;29;20087;-66
2021/05/03 01:46:59;;;;;;;9.02;5.82;;;;;;;;;;4930134;29;20056;-66
2021/05/03 01:49:26;;;;;;;7.75;6.60;;;;;;;;;;4914492;29;20422;-67
2021/05/03 01:51:53;;;;;;;10.48;6.80;;;;;;;;;;4898878;29;20048;-67
2021/05/03 01:54:19;;;;;;;10.25;7.45;;;;;;;;;;4915383;29;20092;-66
2021/05/03 01:56:46;;;;;;;8.98;7.70;;;;;;;;;;4915260;29;20071;-66
2021/05/03 01:59:12;;;;;;;10.55;7.20;;;;;;;;;;4915631;29;20052;-66
2021/05/03 02:01:39;;;;;;;8.93;7.40;;;;;;;;;;4915325;29;20531;-67
2021/05/03 02:04:08;;;;;;;8.82;7.15;;;;;;;;;;4915456;29;20135;-67
2021/05/03 02:06:38;;;;;;;8.02;6.95;;;;;;;;;;4915110;29;20526;-67
2021/05/03 02:09:10;;;;;;;8.02;6.97;;;;;;;;;;4915469;29;20451;-67
2021/05/03 02:11:37;;;;;;;9.68;6.80;;;;;;;;;;4915351;29;20087;-66
2021/05/03 02:14:03;;;;;;;8.52;7.32;;;;;;;;;;4918524;29;20310;-66
2021/05/03 02:16:30;;;;;;;9.52;7.22;;;;;;;;;;4919154;29;20490;-67
2021/05/03 02:18:56;;;;;;;8.98;7.18;;;;;;;;;;4919369;29;20482;-67
2021/05/03 02:21:22;;;;;;;9.60;7.05;;;;;;;;;;4919194;29;20115;-66
2021/05/03 02:23:48;;;;;;;12.10;7.25;;;;;;;;;;4919096;29;20108;-67
2021/05/03 02:26:15;;;;;;;8.45;7.53;;;;;;;;;;4918713;29;20052;-66
2021/05/03 02:28:41;;;;;;;8.40;6.78;;;;;;;;;;4918995;29;20124;-66
2021/05/03 02:31:07;;;;;;;9.05;7.22;;;;;;;;;;4918964;29;20087;-67
2021/05/03 02:33:33;;;;;;;9.27;7.70;;;;;;;;;;4919312;29;20103;-67
2021/05/03 02:36:00;;;;;;;9.95;7.95;;;;;;;;;;4918699;29;20086;-67
2021/05/03 02:38:28;;;;;;;10.27;8.63;;;;;;;;;;4919121;29;20055;-67
2021/05/03 02:40:55;;;;;;;12.70;8.13;;;;;;;;;;4918979;29;20052;-67
2021/05/03 02:43:21;;;;;;;9.05;7.50;;;;;;;;;;4919123;29;20397;-66
2021/05/03 02:45:47;;;;;;;12.70;8.25;;;;;;;;;;4918299;29;20538;-66
2021/05/03 02:48:13;;;;;;;10.63;8.32;;;;;;;;;;4918761;29;20107;-66
2021/05/03 02:50:39;;;;;;;11.63;8.30;;;;;;;;;;4918566;29;20087;-66
2021/05/03 02:53:05;;;;;;;11.77;8.38;;;;;;;;;;4918491;29;20086;-66
2021/05/03 02:55:31;;;;;;;10.07;8.68;;;;;;;;;;4954410;23;20067;-69
2021/05/03 02:57:58;;;;;;;12.48;9.25;;;;;;;;;;4952282;29;20486;-69
2021/05/03 03:00:28;;;;;;;10.13;8.63;;;;;;;;;;4920786;29;20106;-69
2021/05/03 03:02:55;;;;;;;11.15;8.80;;;;;;;;;;4937352;29;20048;-69
2021/05/03 03:05:21;;;;;;;14.20;9.18;;;;;;;;;;4946678;29;20052;-69
2021/05/03 03:07:49;;;;;;;12.05;8.02;;;;;;;;;;4885907;29;20056;-69
2021/05/03 03:10:15;;;;;;;10.82;8.25;;;;;;;;;;4901653;29;20052;-69
2021/05/03 03:12:41;;;;;;;10.45;8.30;;;;;;;;;;4918584;29;20048;-69
2021/05/03 03:15:10;;;;;;;13.15;7.95;;;;;;;;;;4918026;29;20048;-68
2021/05/03 03:17:37;;;;;;;13.82;8.60;;;;;;;;;;4886477;29;20064;-69
2021/05/03 03:20:05;;;;;;;11.18;8.68;;;;;;;;;;4917040;29;20111;-69
2021/05/03 03:22:36;;;;;;;12.38;8.27;;;;;;;;;;4918195;29;20612;-70
2021/05/03 03:25:03;;;;;;;9.55;8.00;;;;;;;;;;4901139;29;20063;-69
2021/05/03 03:27:29;;;;;;;13.63;9.63;;;;;;;;;;4885529;29;20445;-68
2021/05/03 03:29:55;;;;;;;9.43;7.65;;;;;;;;;;4910606;29;20124;-69
2021/05/03 03:32:21;;;;;;;13.13;9.25;;;;;;;;;;4922377;29;20108;-69
2021/05/03 03:34:47;;;;;;;10.00;8.07;;;;;;;;;;4921804;29;20446;-69
2021/05/03 03:37:13;;;;;;;13.38;8.23;;;;;;;;;;4907960;29;20100;-68
2021/05/03 03:39:41;;;;;;;9.70;8.27;;;;;;;;;;4899313;29;20154;-68
2021/05/03 03:42:07;;;;;;;15.05;9.10;;;;;;;;;;4847771;29;24377;-68
2021/05/03 03:44:33;;;;;;;14.05;9.60;;;;;;;;;;4900591;29;20056;-69
2021/05/03 03:46:59;;;;;;;11.85;9.13;;;;;;;;;;4890255;29;20048;-69
2021/05/03 03:49:26;;;;;;;13.93;9.98;;;;;;;;;;4923678;29;20445;-69
2021/05/03 03:51:52;;;;;;;12.48;9.43;;;;;;;;;;4916467;29;20052;-68
2021/05/03 03:54:18;;;;;;;14.82;11.02;;;;;;;;;;4898816;29;20060;-69
2021/05/03 03:56:44;;;;;;;14.38;10.75;;;;;;;;;;4898221;29;20507;-69
2021/05/03 03:59:11;;;;;;;13.90;10.80;;;;;;;;;;4866701;29;20056;-69
2021/05/03 04:01:37;;;;;;;14.07;10.20;;;;;;;;;;4866668;29;20060;-69
2021/05/03 04:04:12;;;;;;;15.05;11.13;;;;;;;;;;4884677;29;20052;-69
2021/05/03 04:09:22;;;;;;;12.25;9.90;;;;;;;;;;4916128;29;20551;-69
2021/05/03 04:23:34;;;;;;;14.52;10.02;;;;;;;;;;4884108;29;20506;-69
2021/05/03 04:25:40;;;;;;;13.68;10.07;;;;;;;;;;4897684;29;20052;-70
2021/05/03 04:28:07;;;;;;;13.15;9.77;;;;;;;;;;4914378;29;20047;-70
2021/05/03 04:30:34;;;;;;;14.23;9.50;;;;;;;;;;4916071;29;20051;-70
2021/05/03 04:33:01;;;;;;;12.45;9.70;;;;;;;;;;4915794;29;20055;-69
2021/05/03 04:35:28;;;;;;;16.00;10.82;;;;;;;;;;4915245;29;20107;-70
2021/05/03 04:37:54;;;;;;;17.20;10.77;;;;;;;;;;4914736;29;20056;-69
2021/05/03 04:40:20;;;;;;;13.15;10.48;;;;;;;;;;4884439;29;20131;-69
2021/05/03 04:42:46;;;;;;;13.30;9.50;;;;;;;;;;4916575;29;20056;-69
2021/05/03 04:45:13;;;;;;;13.68;10.30;;;;;;;;;;4916643;29;20237;-68
2021/05/03 04:47:40;;;;;;;12.23;10.05;;;;;;;;;;4884644;29;20131;-69
2021/05/03 04:50:07;;;;;;;15.98;10.02;;;;;;;;;;4899970;29;20056;-70
2021/05/03 04:52:34;;;;;;;12.77;10.07;;;;;;;;;;4884022;29;20495;-69
2021/05/03 04:55:00;;;;;;;14.05;9.70;;;;;;;;;;4884134;29;20103;-69
2021/05/03 04:57:27;;;;;;;14.40;10.27;;;;;;;;;;4911705;29;20056;-69
2021/05/03 04:59:53;;;;;;;13.63;10.18;;;;;;;;;;4897596;29;20063;-69
2021/05/03 05:02:19;;;;;;;15.32;10.80;;;;;;;;;;4896200;29;20105;-69
2021/05/03 05:04:45;;;;;;;15.07;9.77;;;;;;;;;;4880788;29;20063;-69
2021/05/03 05:07:11;;;;;;;17.45;10.60;;;;;;;;;;4897172;29;20052;-69
2021/05/03 05:09:37;;;;;;;17.17;11.52;;;;;;;;;;4911641;29;20067;-69
2021/05/03 05:12:04;;;;;;;14.85;10.32;;;;;;;;;;4911877;29;20052;-69
2021/05/03 05:14:30;;;;;;;18.13;10.50;;;;;;;;;;4897183;29;20120;-69
2021/05/03 05:16:57;;;;;;;15.93;11.05;;;;;;;;;;4911387;29;20472;-69
2021/05/03 05:19:24;;;;;;;18.02;10.95;;;;;;;;;;4911734;29;20503;-70
2021/05/03 05:21:51;;;;;;;18.30;10.90;;;;;;;;;;4864969;29;20087;-69
2021/05/03 05:24:17;;;;;;;12.30;9.63;;;;;;;;;;4880630;29;20544;-69
2021/05/03 05:26:43;;;;;;;14.93;11.43;;;;;;;;;;4899764;29;20064;-70
2021/05/03 05:29:09;;;;;;;16.85;11.48;;;;;;;;;;4867607;29;20419;-70
2021/05/03 05:31:35;;;;;;;18.35;11.35;;;;;;;;;;4882926;29;20472;-70
2021/05/03 05:34:02;;;;;;;27.52;12.85;;;;;;;;;;4896740;29;20101;-69
2021/05/03 05:36:28;;;;;;;17.80;11.57;;;;;;;;;;4896483;29;20427;-69
2021/05/03 05:38:55;;;;;;;19.98;12.93;;;;;;;;;;4882676;29;20567;-70
2021/05/03 05:41:21;;;;;;;19.42;12.63;;;;;;;;;;4866996;29;20500;-70
2021/05/03 05:43:47;;;;;;;14.82;11.77;;;;;;;;;;4914285;29;20116;-70
2021/05/03 05:46:18;;;;;;;15.75;11.05;;;;;;;;;;4867856;29;20056;-71
2021/05/03 05:48:47;;;;;;;15.55;10.15;;;;;;;;;;4869116;29;20483;-70
2021/05/03 05:51:13;;;;;;;15.30;11.05;;;;;;;;;;4889166;29;20072;-70
2021/05/03 05:53:39;;;;;;;10.65;9.50;;;;;;;;;;4917176;29;20052;-70
2021/05/03 05:56:05;;;;;;;14.15;10.85;;;;;;;;;;4916321;29;20502;-70
2021/05/03 05:58:33;;;;;;;16.45;11.32;;;;;;;;;;4919642;29;20056;-70
2021/05/03 06:01:03;;;;;;;14.13;11.00;;;;;;;;;;4885541;29;20091;-69
2021/05/03 06:03:29;;;;;;;15.60;10.88;;;;;;;;;;4898823;29;20503;-69
2021/05/03 06:05:59;;;;;;;13.55;10.82;;;;;;;;;;4883237;29;20059;-70
2021/05/03 06:08:25;;;;;;;14.57;10.43;;;;;;;;;;4883981;29;20043;-69
2021/05/03 06:10:52;;;;;;;14.63;10.60;;;;;;;;;;4911127;29;20063;-69
2021/05/03 06:13:18;;;;;;;18.77;11.15;;;;;;;;;;4914007;29;20500;-69
2021/05/03 06:15:44;;;;;;;15.35;11.35;;;;;;;;;;4900230;29;20064;-69
2021/05/03 06:18:11;;;;;;;15.23;10.13;;;;;;;;;;4900937;29;20052;-70
2021/05/03 06:20:38;;;;;;;16.58;11.90;;;;;;;;;;4901740;29;20108;-70
2021/05/03 06:23:08;;;;;;;17.17;11.40;;;;;;;;;;4897558;29;20056;-72
2021/05/03 06:25:34;;;;;;;17.45;11.27;;;;;;;;;;4917674;29;20056;-71
2021/05/03 06:28:00;;;;;;;11.00;9.63;;;;;;;;;;4901795;29;20099;-71
2021/05/03 06:30:27;;;;;;;14.55;10.40;;;;;;;;;;4901152;29;20089;-71
2021/05/03 06:32:53;;;;;;;12.40;10.68;;;;;;;;;;4897212;29;20051;-71
2021/05/03 06:35:20;;;;;;;13.77;10.32;;;;;;;;;;4895648;29;20067;-70
2021/05/03 06:37:46;;;;;;;13.35;10.23;;;;;;;;;;4913017;29;20059;-71
2021/05/03 06:40:13;;;;;;;9.52;8.00;;;;;;;;;;4896797;29;20056;-70
2021/05/03 06:42:40;;;;;;;12.68;7.88;;;;;;;;;;4896335;29;20048;-71
2021/05/03 06:45:08;;;;;;;9.68;7.65;;;;;;;;;;4911634;29;20088;-70
2021/05/03 06:47:36;;;;;;;10.30;8.45;;;;;;;;;;4876869;29;20164;-70
2021/05/03 06:50:05;;;;;;;9.32;7.30;;;;;;;;;;4889123;29;20060;-71
2021/05/03 06:52:31;;;;;;;9.80;8.10;;;;;;;;;;4896198;29;20107;-70
2021/05/03 06:54:57;;;;;;;11.80;8.73;;;;;;;;;;4893619;29;20135;-69
2021/05/03 06:57:23;;;;;;;9.30;8.35;;;;;;;;;;4884031;29;20056;-68
2021/05/03 06:59:49;;;;;;;14.02;8.85;;;;;;;;;;4870360;29;20116;-72
2021/05/03 07:02:15;;;;;;;9.55;7.60;;;;;;;;;;4895741;29;20053;-74
2021/05/03 07:04:43;;;;;;;8.80;7.90;;;;;;;;;;4888092;29;20428;-73
2021/05/03 07:07:09;;;;;;;8.77;7.88;;;;;;;;;;4896034;29;20270;-73
2021/05/03 07:09:35;;;;;;;8.05;7.22;;;;;;;;;;4905364;29;20083;-74
2021/05/03 07:12:08;;;;;;;10.40;7.40;;;;;;;;;;4886307;29;20414;-73
2021/05/03 07:14:38;;;;;;;;;;;;;;;;;;4894388;29;20067;-73
2021/05/03 07:17:05;;;;;;;12.88;8.15;;;;;;;;;;4903615;29;20329;-73
2021/05/03 07:19:32;;;;;;;8.75;6.93;;;;;;;;;;4870631;29;20060;-72
2021/05/03 07:22:00;;;;;;;9.20;8.05;;;;;;;;;;4905245;29;20052;-73
2021/05/03 07:24:26;;;;;;;11.00;8.20;;;;;;;;;;4879522;29;20056;-69
2021/05/03 07:26:52;;;;;;;12.52;8.13;;;;;;;;;;4905961;29;20048;-71
2021/05/03 07:29:18;;;;;;;10.00;8.38;;;;;;;;;;4901425;29;20056;-70
2021/05/03 07:31:44;;;;;;;8.77;7.57;;;;;;;;;;4876996;29;20585;-71
2021/05/03 07:34:11;;;;;;;9.07;7.40;;;;;;;;;;4879387;29;20491;-72
2021/05/03 07:36:37;;;;;;;8.95;7.72;;;;;;;;;;4897066;29;20060;-72
2021/05/03 07:39:05;;;;;;;13.60;8.30;;;;;;;;;;4890376;29;20467;-72
2021/05/03 07:41:32;;;;;;;10.55;7.13;;;;;;;;;;4892239;29;20577;-71
2021/05/03 07:43:59;;;;;;;8.95;7.53;;;;;;;;;;4894347;29;20060;-67
2021/05/03 07:46:26;;;;;;;8.85;7.43;;;;;;;;;;4891222;29;20413;-69
2021/05/03 07:48:56;;;;;;;11.20;7.55;;;;;;;;;;4891477;29;20514;-69
2021/05/03 07:51:22;;;;;;;10.57;8.02;;;;;;;;;;4898272;29;20111;-67
2021/05/03 07:53:50;;;;;;;9.00;6.93;;;;;;;;;;4865315;29;20499;-69
2021/05/03 07:56:16;;;;;;;9.30;7.28;;;;;;;;;;4905254;29;20044;-70
2021/05/03 07:58:44;;;;;;;14.35;7.63;;;;;;;;;;4887247;29;20052;-69
2021/05/03 08:01:10;;;;;;;8.43;6.97;;;;;;;;;;4898503;29;20460;-71
2021/05/03 08:03:40;;;;;;;8.73;6.63;;;;;;;;;;4890831;29;20087;-71
2021/05/03 08:06:09;;;;;;;11.77;6.18;;;;;;;;;;4882662;29;20052;-71
2021/05/03 08:08:35;;;;;;;7.22;6.53;;;;;;;;;;4911893;29;20052;-70
2021/05/03 08:11:01;;;;;;;8.50;7.40;;;;;;;;;;4904743;29;20044;-72
2021/05/03 08:13:29;;;;;;;8.32;6.78;;;;;;;;;;4903040;29;20049;-71
2021/05/03 08:15:58;;;;;;;8.55;6.50;;;;;;;;;;4897819;29;20045;-72
2021/05/03 08:18:24;;;;;;;8.85;6.90;;;;;;;;;;4879113;29;20059;-71
2021/05/03 08:20:54;;;;;;;8.95;6.20;;;;;;;;;;4890785;29;20063;-70
2021/05/03 08:23:21;;;;;;;8.80;6.03;;;;;;;;;;4897282;29;20075;-69
2021/05/03 08:25:48;;;;;;;8.65;5.90;;;;;;;;;;4902397;29;20112;-68
2021/05/03 08:28:15;;;;;;;12.10;7.05;;;;;;;;;;4897763;29;20105;-69
2021/05/03 08:30:42;;;;;;;8.32;6.18;;;;;;;;;;4898295;29;20123;-68
2021/05/03 08:33:08;;;;;;;7.45;6.03;;;;;;;;;;4897593;29;20045;-69
2021/05/03 08:35:34;;;;;;;7.18;5.97;;;;;;;;;;4897770;29;20052;-68
2021/05/03 08:38:01;;;;;;;6.85;6.15;;;;;;;;;;4896740;29;20416;-68
2021/05/03 08:40:28;;;;;;;7.82;5.75;;;;;;;;;;4889163;29;20085;-69
2021/05/03 08:42:55;;;;;;;8.05;6.25;;;;;;;;;;4891049;29;20051;-68
2021/05/03 08:45:22;;;;;;;7.00;6.10;;;;;;;;;;4901294;29;20112;-68
2021/05/03 08:48:29;;;;;;;7.60;6.20;;;;;;;;;;4907698;29;20063;-68
2021/05/03 08:51:09;;;;;;;6.93;5.38;;;;;;;;;;4900350;29;20490;-67
2021/05/03 08:53:40;;;;;;;10.48;5.72;;;;;;;;;;4901638;29;20107;-68
2021/05/03 08:56:06;;;;;;;6.40;5.55;;;;;;;;;;4896539;29;20076;-67
2021/05/03 08:58:36;;;;;;;5.75;5.15;;;;;;;;;;4896753;29;20087;-68
2021/05/03 09:01:02;;;;;;;6.93;5.93;;;;;;;;;;4914381;29;20447;-67
2021/05/03 09:03:28;;;;;;;7.18;5.63;;;;;;;;;;4916121;29;20550;-66
2021/05/03 09:06:02;;;;;;;6.43;5.78;;;;;;;;;;4884731;29;20137;-67
2021/05/03 09:08:30;;;;;;;8.10;6.00;;;;;;;;;;4899597;29;20541;-66
2021/05/03 09:10:57;;;;;;;6.40;5.03;;;;;;;;;;4903127;29;20499;-70
2021/05/03 09:13:42;;;;;;;7.07;5.75;;;;;;;;;;4896923;29;20048;-70
2021/05/03 09:16:20;;;;;;;7.15;5.80;;;;;;;;;;4902352;29;20052;-69
2021/05/03 09:18:46;;;;;;;7.00;5.35;;;;;;;;;;4901405;29;20056;-69
2021/05/03 09:21:22;;;;;;;10.20;5.75;;;;;;;;;;4893117;29;20045;-66
2021/05/03 09:24:12;;;;;;;7.47;5.07;;;;;;;;;;4903272;29;20052;-67
2021/05/03 09:26:43;;;;;;;6.25;4.88;;;;;;;;;;4904917;29;20048;-67
2021/05/03 09:29:28;;;;;;;6.35;5.32;;;;;;;;;;4886009;29;20048;-68
2021/05/03 09:32:03;;;;;;;5.97;5.22;;;;;;;;;;4904793;29;20056;-67
2021/05/03 09:34:43;;;;;;;5.30;4.80;;;;;;;;;;4908287;29;20060;-68
2021/05/03 09:37:16;;;;;;;6.10;5.20;;;;;;;;;;4889115;29;20112;-67
2021/05/03 09:39:57;;;;;;;5.72;5.13;;;;;;;;;;4908681;29;20134;-67
2021/05/03 09:42:24;;;;;;;8.07;5.20;;;;;;;;;;4905881;29;20052;-68
2021/05/03 09:45:11;;;;;;;7.57;5.05;;;;;;;;;;4896710;29;20111;-68
2021/05/03 09:47:39;;;;;;;9.00;5.40;;;;;;;;;;4894726;29;20063;-69
2021/05/03 09:50:08;;;;;;;6.72;5.50;;;;;;;;;;4898117;29;20440;-68
2021/05/03 09:52:34;;;;;;;7.30;6.03;;;;;;;;;;4896728;29;20404;-67
2021/05/03 09:55:01;;;;;;;6.03;5.13;;;;;;;;;;4913930;29;20056;-67
2021/05/03 09:57:27;;;;;;;5.13;4.63;;;;;;;;;;4914298;29;20055;-67
2021/05/03 09:59:54;;;;;;;5.63;5.13;;;;;;;;;;4897977;29;20464;-66
2021/05/03 10:02:28;;;;;;;6.05;4.97;;;;;;;;;;4915179;29;20102;-67
2021/05/03 10:05:17;;;;;;;5.97;4.50;;;;;;;;;;4898749;29;20052;-68
2021/05/03 10:07:51;;;;;;;5.95;4.32;;;;;;;;;;4899825;29;20088;-67
2021/05/03 10:10:20;;;;;;;5.43;4.30;;;;;;;;;;4880339;29;20057;-68
2021/05/03 10:12:47;;;;;;;6.53;4.78;;;;;;;;;;4899285;29;20079;-68
2021/05/03 10:15:15;;;;;;;6.13;4.20;;;;;;;;;;4895116;29;20171;-70
2021/05/03 10:17:43;;;;;;;5.40;4.38;;;;;;;;;;4907449;29;20056;-71
2021/05/03 10:20:13;;;;;;;5.28;3.67;;;;;;;;;;4901169;29;20135;-73
2021/05/03 10:22:39;;;;;;;5.95;4.00;;;;;;;;;;4914556;29;20111;-71
2021/05/03 10:25:13;;;;;;;4.07;3.67;;;;;;;;;;4881312;29;20048;-73
2021/05/03 10:27:48;;;;;;;4.25;3.67;;;;;;;;;;4866837;29;20052;-71
2021/05/03 10:30:20;;;;;;;5.05;3.72;;;;;;;;;;4896326;29;20052;-70
2021/05/03 10:33:02;;;;;;;5.72;3.92;;;;;;;;;;4903594;29;20057;-71
2021/05/03 10:35:31;;;;;;;4.22;3.63;;;;;;;;;;4888505;29;20522;-69
2021/05/03 10:37:58;;;;;;;5.80;4.13;;;;;;;;;;4899845;29;20091;-69
2021/05/03 10:40:24;;;;;;;5.90;4.25;;;;;;;;;;4909767;29;20487;-69
2021/05/03 10:43:02;;;;;;;4.57;3.85;;;;;;;;;;4901443;29;20571;-68
2021/05/03 10:49:19;;;;;;;4.47;2.92;;;;;;;;;;4883440;29;20592;-70
2021/05/03 10:51:47;;;;;;;7.53;3.08;;;;;;;;;;4898737;29;20056;-69
2021/05/03 10:57:20;;;;;;;4.60;3.65;;;;;;;;;;4903042;29;20131;-69
2021/05/03 10:59:55;;;;;;;4.50;3.20;;;;;;;;;;4905322;29;20056;-69
2021/05/03 11:02:25;;;;;;;5.53;3.10;;;;;;;;;;4905688;29;20109;-70
2021/05/03 11:05:22;;;;;;;3.80;3.38;;;;;;;;;;4904505;29;20056;-70
2021/05/03 11:08:04;;;;;;;4.93;3.15;;;;;;;;;;4894758;29;20096;-72
2021/05/03 11:11:02;;;;;;;4.97;3.10;;;;;;;;;;4906877;29;20487;-71
2021/05/03 11:13:40;;;;;;;6.80;3.35;;;;;;;;;;4905424;29;20056;-71
2021/05/03 11:16:25;;;;;;;4.35;3.88;;;;;;;;;;4910823;29;20092;-70
2021/05/03 11:18:53;;;;;;;6.68;3.75;;;;;;;;;;4910468;29;20228;-73
2021/05/03 11:21:19;;;;;;;4.93;3.53;;;;;;;;;;4900376;29;20048;-71
2021/05/03 11:23:46;;;;;;;4.75;3.40;;;;;;;;;;4920953;29;20041;-72
2021/05/03 11:26:27;;;;;;;3.65;3.30;;;;;;;;;;4889480;29;20062;-73
2021/05/03 11:29:04;;;;;;;5.18;3.72;;;;;;;;;;4900188;29;20532;-70
2021/05/03 11:31:32;;;;;;;3.65;3.10;;;;;;;;;;4899634;29;20049;-71
2021/05/03 11:34:04;;;;;;;3.33;2.78;;;;;;;;;;4907278;29;20104;-72
2021/05/03 11:36:33;;;;;;;5.18;2.92;;;;;;;;;;4883852;29;20048;-70
2021/05/03 11:39:10;;;;;;;7.60;4.05;;;;;;;;;;4905641;29;20053;-71
2021/05/03 11:41:59;;;;;;;3.22;2.92;;;;;;;;;;4900429;29;20499;-70
2021/05/03 11:44:48;;;;;;;2.70;2.50;;;;;;;;;;4904348;29;20044;-71
2021/05/03 11:47:14;;;;;;;5.40;3.20;;;;;;;;;;4896616;29;20563;-70
2021/05/03 11:49:44;;;;;;;3.50;2.10;;;;;;;;;;4905147;29;20060;-69
2021/05/03 11:52:11;;;;;;;7.13;3.47;;;;;;;;;;4897429;29;20056;-69
2021/05/03 11:54:42;;;;;;;3.28;2.90;;;;;;;;;;4885766;29;20040;-69
2021/05/03 11:57:19;;;;;;;5.90;3.28;;;;;;;;;;4886551;29;20087;-70
2021/05/03 11:59:46;;;;;;;5.07;3.00;;;;;;;;;;4899602;29;20056;-69
2021/05/03 12:02:16;;;;;;;4.15;2.55;;;;;;;;;;4882164;29;20278;-70
2021/05/03 12:04:47;;;;;;;3.60;2.28;;;;;;;;;;4887717;29;20135;-69
2021/05/03 12:07:30;;;;;;;2.17;1.98;;;;;;;;;;4897714;29;20052;-69
2021/05/03 12:10:12;;;;;;;2.63;2.17;;;;;;;;;;4882967;29;20059;-70
2021/05/03 12:12:49;;;;;;;3.85;2.33;;;;;;;;;;4885977;29;20117;-70
2021/05/03 12:15:19;;;;;;;3.65;2.30;;;;;;;;;;4905454;29;20103;-71
2021/05/03 12:17:46;;;;;;;4.38;2.22;;;;;;;;;;4906771;29;20499;-71
2021/05/03 12:20:20;;;;;;;1.85;1.75;;;;;;;;;;4871848;29;20062;-71
2021/05/03 12:22:57;;;;;;;2.53;2.30;;;;;;;;;;4908897;29;20062;-70
2021/05/03 12:25:25;;;;;;;2.65;2.30;;;;;;;;;;4902803;29;20606;-70
2021/05/03 12:27:51;;;;;;;2.40;2.08;;;;;;;;;;4922468;29;20063;-70
2021/05/03 12:30:18;;;;;;;3.80;2.80;;;;;;;;;;4897604;29;20103;-70
2021/05/03 12:32:44;;;;;;;5.13;3.03;;;;;;;;;;4905812;29;20088;-69
2021/05/03 12:35:21;;;;;;;2.45;2.10;;;;;;;;;;4896869;29;20049;-74
2021/05/03 12:37:48;;;;;;;2.28;1.88;;;;;;;;;;4863160;29;20527;-72
2021/05/03 12:40:23;;;;;;;2.88;1.73;;;;;;;;;;4903800;29;20056;-69
2021/05/03 12:42:51;;;;;;;2.60;1.80;;;;;;;;;;4897135;29;20064;-71
2021/05/03 12:45:37;;;;;;;1.95;1.75;;;;;;;;;;4898220;29;20051;-72
2021/05/03 12:48:16;;;;;;;2.35;1.77;;;;;;;;;;4906653;29;20084;-71
2021/05/03 12:53:53;;;;;;;2.15;1.90;;;;;;;;;;4892936;29;20040;-69
2021/05/03 12:56:29;;;;;;;3.08;1.90;;;;;;;;;;4886480;29;20080;-73
2021/05/03 13:09:52;;;;;;;2.42;1.50;;;;;;;;;;4879325;29;20059;-71
2021/05/03 13:29:04;;;;;;;2.75;1.60;;;;;;;;;;4915572;29;20471;-71
2021/05/03 13:31:33;;;;;;;1.45;1.30;;;;;;;;;;4910793;29;20078;-70
2021/05/03 13:33:59;;;;;;;4.45;1.75;;;;;;;;;;4916216;29;20052;-70
2021/05/03 13:36:27;;;;;;;2.40;1.60;;;;;;;;;;4886087;29;20103;-73
2021/05/03 13:38:53;;;;;;;5.20;2.10;;;;;;;;;;4900741;29;20798;-73
2021/05/03 13:41:19;;;;;;;6.72;5.25;;;;;;;;;;4905119;29;20053;-69
2021/05/03 13:43:45;;;;;;;1.95;1.67;;;;;;;;;;4909486;29;20655;-68
2021/05/03 13:46:11;;;;;;;3.53;1.58;;;;;;;;;;4895697;29;20435;-72
2021/05/03 13:48:39;;;;;;;2.03;1.92;;;;;;;;;;4886947;29;20262;-74
2021/05/03 13:51:07;;;;;;;1.98;1.60;;;;;;;;;;4894588;29;20103;-71
2021/05/03 13:53:37;;;;;;;1.65;1.48;;;;;;;;;;4895210;29;20044;-73
2021/05/03 13:56:04;;;;;;;1.80;1.52;;;;;;;;;;4883831;29;20071;-72
2021/05/03 13:58:30;;;;;;;1.80;1.70;;;;;;;;;;4918378;29;20100;-71
2021/05/03 14:00:56;;;;;;;1.55;1.33;;;;;;;;;;4877434;29;20084;-76
2021/05/03 14:03:22;;;;;;;2.88;1.38;;;;;;;;;;4898814;29;20052;-75
2021/05/03 14:05:48;;;;;;;1.88;1.20;;;;;;;;;;4896917;29;20115;-72
2021/05/03 14:08:14;;;;;;;1.70;1.52;;;;;;;;;;4903834;29;20104;-72
2021/05/03 14:10:41;;;;;;;5.40;2.00;;;;;;;;;;4898076;29;20111;-75
2021/05/03 14:13:07;;;;;;;1.63;1.50;;;;;;;;;;4907252;29;20049;-72
2021/05/03 14:15:36;;;;;;;1.77;1.67;;;;;;;;;;4888256;29;20408;-77
2021/05/03 14:18:02;;;;;;;1.85;1.70;;;;;;;;;;4904678;29;20049;-73
2021/05/03 14:20:29;;;;;;;1.50;1.40;;;;;;;;;;4919511;29;20048;-74
2021/05/03 14:22:55;;;;;;;1.67;1.42;;;;;;;;;;4909262;29;20524;-72
2021/05/03 14:25:22;;;;;;;2.58;1.85;;;;;;;;;;4918629;29;20107;-75
2021/05/03 14:27:59;;;;;;;2.08;1.25;;;;;;;;;;4899389;29;20054;-74
2021/05/03 14:33:23;;;;;;;3.13;1.58;;;;;;;;;;4895461;29;20119;-71
2021/05/03 14:35:50;;;;;;;2.15;1.25;;;;;;;;;;4891139;29;20131;-72
2021/05/03 14:38:17;;;;;;;2.67;1.65;;;;;;;;;;4898096;29;20052;-71
2021/05/03 14:40:44;;;;;;;2.50;1.30;;;;;;;;;;4900321;29;20099;-70
2021/05/03 14:43:12;;;;;;;1.40;1.30;;;;;;;;;;4882477;29;20051;-71
2021/05/03 14:46:03;;;;;;;2.60;1.30;;;;;;;;;;4899819;29;20068;-69
2021/05/03 14:54:39;;;;;;;1.83;1.60;;;;;;;;;;4897001;29;20050;-69
2021/05/03 14:57:10;;;;;;;1.43;1.30;;;;;;;;;;4930188;23;20383;-71
2021/05/03 14:59:38;;;;;;;2.30;1.45;;;;;;;;;;4932566;29;20521;-70
2021/05/03 15:02:04;;;;;;;2.88;1.42;;;;;;;;;;4936362;29;20099;-70
2021/05/03 15:04:32;;;;;;;1.58;1.30;;;;;;;;;;4935671;29;20043;-72
2021/05/03 15:07:04;;;;;;;3.00;1.55;;;;;;;;;;4934943;29;20048;-72
2021/05/03 15:12:29;;;;;;;3.33;2.30;;;;;;;;;;4931594;29;20052;-72
2021/05/03 15:15:10;;;;;;;3.28;2.67;;;;;;;;;;4934750;29;20102;-71
2021/05/03 15:23:02;;;;;;;3.53;2.10;;;;;;;;;;4933724;29;20048;-71
2021/05/03 15:25:30;;;;;;;2.20;2.00;;;;;;;;;;4933396;29;20491;-71
2021/05/03 15:28:23;;;;;;;2.95;1.95;;;;;;;;;;4918838;29;20052;-72
2021/05/03 15:31:00;;;;;;;2.35;2.00;;;;;;;;;;4932940;29;20074;-71
2021/05/03 15:33:35;;;;;;;3.45;1.70;;;;;;;;;;4935711;29;20048;-73
2021/05/03 15:36:04;;;;;;;3.38;2.40;;;;;;;;;;4935241;29;20044;-73
2021/05/03 15:38:31;;;;;;;2.70;2.00;;;;;;;;;;4935286;29;20051;-73
2021/05/03 15:40:57;;;;;;;3.17;2.03;;;;;;;;;;4933339;29;20051;-73
2021/05/03 15:43:26;;;;;;;4.45;2.50;;;;;;;;;;4918182;29;20075;-73
2021/05/03 15:45:53;;;;;;;3.03;2.72;;;;;;;;;;4913283;29;20139;-73
2021/05/03 15:48:20;;;;;;;5.05;2.10;;;;;;;;;;4935814;29;20462;-73
2021/05/03 15:50:57;;;;;;;4.50;2.50;;;;;;;;;;4913781;29;20055;-76
2021/05/03 15:53:26;;;;;;;4.50;2.20;;;;;;;;;;4895291;29;20130;-74
2021/05/03 15:55:54;;;;;;;4.32;2.28;;;;;;;;;;4932742;29;20127;-72
2021/05/03 15:58:21;;;;;;;3.08;2.08;;;;;;;;;;4931024;29;20134;-73